Universal City, TX

9:22 PM CST on February 09, 2016 (GMT -0600)
Randolph Air Force Base | | Change Station
CLOSE
Current Station
Airport
Location: Randolph AFB,
Elevation: 761 ft
Nearby Weather Stations

Elev 761 ft 29.53 °N, 98.28 °W | Updated 24 minutes ago

Clear
Clear
53 °F
Feels Like 53 °F
N
0
Wind Variable Wind from North

Today
High -- | Low -- °F
--% Chance of Precip.
Yesterday
High -- | Low -- °F
Precip. -- in
Pressure 30.29 in
Visibility 10.0 miles
Clouds Clear
Dew Point 31 °F
Humidity 44%
Rainfall 0.00 in
Snow Depth Not available.
7:17 AM 6:17 PM
Waxing Crescent, 3% visible
METAR KRND 100258Z AUTO 00000KT 10SM CLR 12/00 A3028 RMK AO2 SLP255 T01151004 52012
Pressure 30.29 in
Visibility 10.0 miles
Clouds Clear
Dew Point 31 °F
Humidity 44%
Rainfall 0.00 in
Snow Depth Not available.
7:17 AM 6:17 PM
Waxing Crescent, 3% visible
METAR KRND 100258Z AUTO 00000KT 10SM CLR 12/00 A3028 RMK AO2 SLP255 T01151004 52012

10-Day Weather Forecast

Almanac

Astronomy

Feb. 09, 2016 Rise Set
Actual Time
Civil Twilight
Nautical Twilight
Astronomical Twilight
Moon
Length of Visible Light
Length of Day
Tomorrow will be .
, % of the Moon is Illuminated

Today's Extremes

State Highs State Lows

Community

WunderPhotos

Upload Photos

1,891,792 photos uploaded!

WunderBlog® & News

Nearby

Air Quality

  Air Quality AQ Index Pollutant
Not available.

Snow Depth

Station Depth Elevation

Earthquake Activity

City Distance Mag. Time & Date
Minimum magnitude displayed is 2.5.

Coastal Water Temperatures

Place Temperature

Stations

Nearby Weather Stations

Station Location Temp. Windchill Dew Point Humidity Wind Precip. Elev Updated Type
                   

Watches & Warnings

There are currently no watches in effect.